sensor_id;sensor_type;location;lat;lon;timestamp;temperature;humidity
45785;DHT22;31489;51.404;5.474;2023-12-20T00:01:22;10.30;89.50
45785;DHT22;31489;51.404;5.474;2023-12-20T00:03:48;10.30;89.50
45785;DHT22;31489;51.404;5.474;2023-12-20T00:06:14;10.30;89.40
45785;DHT22;31489;51.404;5.474;2023-12-20T00:08:39;10.20;89.30
45785;DHT22;31489;51.404;5.474;2023-12-20T00:11:05;10.20;89.20
45785;DHT22;31489;51.404;5.474;2023-12-20T00:13:31;10.10;89.10
45785;DHT22;31489;51.404;5.474;2023-12-20T00:15:56;10.10;89.00
45785;DHT22;31489;51.404;5.474;2023-12-20T00:18:22;10.00;89.00
45785;DHT22;31489;51.404;5.474;2023-12-20T00:20:48;10.00;89.00
45785;DHT22;31489;51.404;5.474;2023-12-20T00:23:13;10.00;88.90
45785;DHT22;31489;51.404;5.474;2023-12-20T00:25:39;9.90;88.80
45785;DHT22;31489;51.404;5.474;2023-12-20T00:28:04;9.90;88.80
45785;DHT22;31489;51.404;5.474;2023-12-20T00:30:30;9.80;88.90
45785;DHT22;31489;51.404;5.474;2023-12-20T00:32:56;9.80;89.00
45785;DHT22;31489;51.404;5.474;2023-12-20T00:35:22;9.80;89.40
45785;DHT22;31489;51.404;5.474;2023-12-20T00:37:47;9.80;89.30
45785;DHT22;31489;51.404;5.474;2023-12-20T00:40:13;9.70;89.20
45785;DHT22;31489;51.404;5.474;2023-12-20T00:42:39;9.70;89.00
45785;DHT22;31489;51.404;5.474;2023-12-20T00:45:05;9.70;89.00
45785;DHT22;31489;51.404;5.474;2023-12-20T00:47:31;9.70;88.90
45785;DHT22;31489;51.404;5.474;2023-12-20T00:49:57;9.70;88.90
45785;DHT22;31489;51.404;5.474;2023-12-20T00:52:23;9.70;88.80
45785;DHT22;31489;51.404;5.474;2023-12-20T00:54:49;9.70;88.70
45785;DHT22;31489;51.404;5.474;2023-12-20T00:57:14;9.70;88.70
45785;DHT22;31489;51.404;5.474;2023-12-20T00:59:40;9.60;88.80
45785;DHT22;31489;51.404;5.474;2023-12-20T01:02:06;9.60;88.80
45785;DHT22;31489;51.404;5.474;2023-12-20T01:04:32;9.60;88.70
45785;DHT22;31489;51.404;5.474;2023-12-20T01:06:57;9.60;88.80
45785;DHT22;31489;51.404;5.474;2023-12-20T01:09:23;9.60;88.70
45785;DHT22;31489;51.404;5.474;2023-12-20T01:11:52;9.60;88.70
45785;DHT22;31489;51.404;5.474;2023-12-20T01:14:18;9.50;89.30
45785;DHT22;31489;51.404;5.474;2023-12-20T01:16:43;9.50;88.70
45785;DHT22;31489;51.404;5.474;2023-12-20T01:19:09;9.50;88.70
45785;DHT22;31489;51.404;5.474;2023-12-20T01:21:35;9.50;88.80
45785;DHT22;31489;51.404;5.474;2023-12-20T01:24:00;9.50;88.70
45785;DHT22;31489;51.404;5.474;2023-12-20T01:26:26;9.40;88.60
45785;DHT22;31489;51.404;5.474;2023-12-20T01:28:52;9.50;88.70
45785;DHT22;31489;51.404;5.474;2023-12-20T01:31:17;9.40;88.60
45785;DHT22;31489;51.404;5.474;2023-12-20T01:33:43;9.40;88.70
45785;DHT22;31489;51.404;5.474;2023-12-20T01:36:08;9.40;88.80
45785;DHT22;31489;51.404;5.474;2023-12-20T01:38:34;9.40;88.80
45785;DHT22;31489;51.404;5.474;2023-12-20T01:41:00;9.40;88.90
45785;DHT22;31489;51.404;5.474;2023-12-20T01:43:26;9.40;89.00
45785;DHT22;31489;51.404;5.474;2023-12-20T01:45:52;9.40;89.10
45785;DHT22;31489;51.404;5.474;2023-12-20T01:48:18;9.40;88.90
45785;DHT22;31489;51.404;5.474;2023-12-20T01:50:45;9.40;88.90
45785;DHT22;31489;51.404;5.474;2023-12-20T01:53:12;9.40;88.90
45785;DHT22;31489;51.404;5.474;2023-12-20T01:55:40;9.40;89.00
45785;DHT22;31489;51.404;5.474;2023-12-20T01:58:07;9.40;89.10
45785;DHT22;31489;51.404;5.474;2023-12-20T02:00:34;9.30;89.10
45785;DHT22;31489;51.404;5.474;2023-12-20T02:03:04;9.40;89.20
45785;DHT22;31489;51.404;5.474;2023-12-20T02:05:31;9.40;89.20
45785;DHT22;31489;51.404;5.474;2023-12-20T02:07:57;9.40;89.30
45785;DHT22;31489;51.404;5.474;2023-12-20T02:10:23;9.40;89.30
45785;DHT22;31489;51.404;5.474;2023-12-20T02:12:49;9.50;89.30
45785;DHT22;31489;51.404;5.474;2023-12-20T02:15:14;9.40;89.20
45785;DHT22;31489;51.404;5.474;2023-12-20T02:17:40;9.50;89.10
45785;DHT22;31489;51.404;5.474;2023-12-20T02:20:06;9.50;89.00
45785;DHT22;31489;51.404;5.474;2023-12-20T02:22:32;9.50;88.80
45785;DHT22;31489;51.404;5.474;2023-12-20T02:24:58;9.50;88.70
45785;DHT22;31489;51.404;5.474;2023-12-20T02:27:24;9.50;88.70
45785;DHT22;31489;51.404;5.474;2023-12-20T02:29:50;9.50;88.70
45785;DHT22;31489;51.404;5.474;2023-12-20T02:32:20;9.50;88.80
45785;DHT22;31489;51.404;5.474;2023-12-20T02:34:48;9.50;88.70
45785;DHT22;31489;51.404;5.474;2023-12-20T02:37:14;9.50;88.70
45785;DHT22;31489;51.404;5.474;2023-12-20T02:39:39;9.40;88.70
45785;DHT22;31489;51.404;5.474;2023-12-20T02:42:05;9.40;88.70
45785;DHT22;31489;51.404;5.474;2023-12-20T02:44:30;9.40;88.60
45785;DHT22;31489;51.404;5.474;2023-12-20T02:46:56;9.40;88.70
45785;DHT22;31489;51.404;5.474;2023-12-20T02:49:22;9.40;88.70
45785;DHT22;31489;51.404;5.474;2023-12-20T02:51:47;9.40;88.60
45785;DHT22;31489;51.404;5.474;2023-12-20T02:54:13;9.40;88.70
45785;DHT22;31489;51.404;5.474;2023-12-20T02:56:39;9.40;88.60
45785;DHT22;31489;51.404;5.474;2023-12-20T02:59:04;9.40;88.60
45785;DHT22;31489;51.404;5.474;2023-12-20T03:01:31;9.40;88.50
45785;DHT22;31489;51.404;5.474;2023-12-20T03:03:57;9.40;88.50
45785;DHT22;31489;51.404;5.474;2023-12-20T03:06:23;9.40;88.50
45785;DHT22;31489;51.404;5.474;2023-12-20T03:08:48;9.40;88.50
45785;DHT22;31489;51.404;5.474;2023-12-20T03:11:14;9.40;88.50
45785;DHT22;31489;51.404;5.474;2023-12-20T03:13:40;9.40;88.50
45785;DHT22;31489;51.404;5.474;2023-12-20T03:16:12;9.40;88.50
45785;DHT22;31489;51.404;5.474;2023-12-20T03:18:38;9.30;88.30
45785;DHT22;31489;51.404;5.474;2023-12-20T03:21:04;9.30;88.30
45785;DHT22;31489;51.404;5.474;2023-12-20T03:23:30;9.30;88.40
45785;DHT22;31489;51.404;5.474;2023-12-20T03:25:58;9.30;88.30
45785;DHT22;31489;51.404;5.474;2023-12-20T03:28:23;9.30;88.30
45785;DHT22;31489;51.404;5.474;2023-12-20T03:30:49;9.30;88.30
45785;DHT22;31489;51.404;5.474;2023-12-20T03:33:15;9.20;88.30
45785;DHT22;31489;51.404;5.474;2023-12-20T03:35:41;9.20;88.20
45785;DHT22;31489;51.404;5.474;2023-12-20T03:38:07;9.20;88.20
45785;DHT22;31489;51.404;5.474;2023-12-20T03:40:32;9.20;88.20
45785;DHT22;31489;51.404;5.474;2023-12-20T03:42:58;9.20;88.40
45785;DHT22;31489;51.404;5.474;2023-12-20T03:45:24;9.20;88.50
45785;DHT22;31489;51.404;5.474;2023-12-20T03:47:50;9.20;88.50
45785;DHT22;31489;51.404;5.474;2023-12-20T03:50:21;9.20;88.60
45785;DHT22;31489;51.404;5.474;2023-12-20T03:52:47;9.20;88.80
45785;DHT22;31489;51.404;5.474;2023-12-20T03:55:12;9.20;88.90
45785;DHT22;31489;51.404;5.474;2023-12-20T03:57:38;9.20;89.00
45785;DHT22;31489;51.404;5.474;2023-12-20T04:00:04;9.20;89.10
45785;DHT22;31489;51.404;5.474;2023-12-20T04:02:30;9.20;89.10
45785;DHT22;31489;51.404;5.474;2023-12-20T04:04:56;9.20;89.20
45785;DHT22;31489;51.404;5.474;2023-12-20T04:07:22;9.20;89.10
45785;DHT22;31489;51.404;5.474;2023-12-20T04:09:47;9.20;89.10
45785;DHT22;31489;51.404;5.474;2023-12-20T04:12:13;9.30;89.20
45785;DHT22;31489;51.404;5.474;2023-12-20T04:14:39;9.20;89.10
45785;DHT22;31489;51.404;5.474;2023-12-20T04:17:05;9.30;89.20
45785;DHT22;31489;51.404;5.474;2023-12-20T04:19:31;9.30;89.30
45785;DHT22;31489;51.404;5.474;2023-12-20T04:21:56;9.30;89.30
45785;DHT22;31489;51.404;5.474;2023-12-20T04:24:22;9.30;89.20
45785;DHT22;31489;51.404;5.474;2023-12-20T04:26:48;9.30;89.20
45785;DHT22;31489;51.404;5.474;2023-12-20T04:29:13;9.30;89.20
45785;DHT22;31489;51.404;5.474;2023-12-20T04:31:39;9.30;89.20
45785;DHT22;31489;51.404;5.474;2023-12-20T04:34:05;9.30;89.20
45785;DHT22;31489;51.404;5.474;2023-12-20T04:36:30;9.40;89.40
45785;DHT22;31489;51.404;5.474;2023-12-20T04:38:56;9.40;89.40
45785;DHT22;31489;51.404;5.474;2023-12-20T04:41:22;9.40;89.40
45785;DHT22;31489;51.404;5.474;2023-12-20T04:43:47;9.40;89.40
45785;DHT22;31489;51.404;5.474;2023-12-20T04:46:13;9.40;89.30
45785;DHT22;31489;51.404;5.474;2023-12-20T04:48:39;9.50;89.30
45785;DHT22;31489;51.404;5.474;2023-12-20T04:51:04;9.50;89.30
45785;DHT22;31489;51.404;5.474;2023-12-20T04:53:31;9.50;89.30
45785;DHT22;31489;51.404;5.474;2023-12-20T04:55:57;9.50;89.30
45785;DHT22;31489;51.404;5.474;2023-12-20T04:58:22;9.50;89.20
45785;DHT22;31489;51.404;5.474;2023-12-20T05:00:48;9.50;89.30
45785;DHT22;31489;51.404;5.474;2023-12-20T05:03:14;9.50;89.20
45785;DHT22;31489;51.404;5.474;2023-12-20T05:05:39;9.50;89.20
45785;DHT22;31489;51.404;5.474;2023-12-20T05:08:05;9.50;89.20
45785;DHT22;31489;51.404;5.474;2023-12-20T05:10:31;9.60;89.30
45785;DHT22;31489;51.404;5.474;2023-12-20T05:12:56;9.60;89.30
45785;DHT22;31489;51.404;5.474;2023-12-20T05:15:22;9.60;89.00
45785;DHT22;31489;51.404;5.474;2023-12-20T05:17:48;9.60;89.10
45785;DHT22;31489;51.404;5.474;2023-12-20T05:20:13;9.60;89.20
45785;DHT22;31489;51.404;5.474;2023-12-20T05:22:41;9.60;89.00
45785;DHT22;31489;51.404;5.474;2023-12-20T05:25:07;9.60;89.00
45785;DHT22;31489;51.404;5.474;2023-12-20T05:27:33;9.60;89.00
45785;DHT22;31489;51.404;5.474;2023-12-20T05:29:58;9.70;89.00
45785;DHT22;31489;51.404;5.474;2023-12-20T05:32:24;9.70;89.00
45785;DHT22;31489;51.404;5.474;2023-12-20T05:34:50;9.70;88.90
45785;DHT22;31489;51.404;5.474;2023-12-20T05:37:16;9.70;88.90
45785;DHT22;31489;51.404;5.474;2023-12-20T05:39:41;9.70;88.80
45785;DHT22;31489;51.404;5.474;2023-12-20T05:42:07;9.70;88.80
45785;DHT22;31489;51.404;5.474;2023-12-20T05:44:32;9.70;88.90
45785;DHT22;31489;51.404;5.474;2023-12-20T05:46:58;9.70;88.80
45785;DHT22;31489;51.404;5.474;2023-12-20T05:49:24;9.80;88.80
45785;DHT22;31489;51.404;5.474;2023-12-20T05:51:52;9.70;88.80
45785;DHT22;31489;51.404;5.474;2023-12-20T05:54:18;9.80;88.70
45785;DHT22;31489;51.404;5.474;2023-12-20T05:56:43;9.80;88.70
45785;DHT22;31489;51.404;5.474;2023-12-20T05:59:09;9.80;88.60
45785;DHT22;31489;51.404;5.474;2023-12-20T06:01:35;9.80;88.60
45785;DHT22;31489;51.404;5.474;2023-12-20T06:04:00;9.80;88.60
45785;DHT22;31489;51.404;5.474;2023-12-20T06:06:26;9.80;88.40
45785;DHT22;31489;51.404;5.474;2023-12-20T06:08:51;9.80;88.20
45785;DHT22;31489;51.404;5.474;2023-12-20T06:11:17;9.80;88.10
45785;DHT22;31489;51.404;5.474;2023-12-20T06:13:43;9.80;88.10
45785;DHT22;31489;51.404;5.474;2023-12-20T06:16:08;9.80;88.10
45785;DHT22;31489;51.404;5.474;2023-12-20T06:18:34;9.70;88.00
45785;DHT22;31489;51.404;5.474;2023-12-20T06:21:00;9.70;87.90
45785;DHT22;31489;51.404;5.474;2023-12-20T06:23:25;9.70;87.90
45785;DHT22;31489;51.404;5.474;2023-12-20T06:25:52;9.60;87.80
45785;DHT22;31489;51.404;5.474;2023-12-20T06:28:18;9.60;87.60
45785;DHT22;31489;51.404;5.474;2023-12-20T06:30:43;9.60;87.60
45785;DHT22;31489;51.404;5.474;2023-12-20T06:33:09;9.50;87.60
45785;DHT22;31489;51.404;5.474;2023-12-20T06:35:36;9.50;87.60
45785;DHT22;31489;51.404;5.474;2023-12-20T06:38:02;9.50;87.60
45785;DHT22;31489;51.404;5.474;2023-12-20T06:40:28;9.40;87.50
45785;DHT22;31489;51.404;5.474;2023-12-20T06:42:53;9.40;87.60
45785;DHT22;31489;51.404;5.474;2023-12-20T06:45:19;9.30;87.60
45785;DHT22;31489;51.404;5.474;2023-12-20T06:47:45;9.30;87.70
45785;DHT22;31489;51.404;5.474;2023-12-20T06:50:11;9.30;87.80
45785;DHT22;31489;51.404;5.474;2023-12-20T06:52:36;9.30;87.70
45785;DHT22;31489;51.404;5.474;2023-12-20T06:55:03;9.20;87.70
45785;DHT22;31489;51.404;5.474;2023-12-20T06:57:29;9.20;87.70
45785;DHT22;31489;51.404;5.474;2023-12-20T06:59:55;9.20;87.80
45785;DHT22;31489;51.404;5.474;2023-12-20T07:02:20;9.20;87.80
45785;DHT22;31489;51.404;5.474;2023-12-20T07:04:47;9.10;87.80
45785;DHT22;31489;51.404;5.474;2023-12-20T07:07:13;9.20;88.00
45785;DHT22;31489;51.404;5.474;2023-12-20T07:09:39;9.10;88.00
45785;DHT22;31489;51.404;5.474;2023-12-20T07:12:06;9.10;88.00
45785;DHT22;31489;51.404;5.474;2023-12-20T07:14:32;9.10;88.00
45785;DHT22;31489;51.404;5.474;2023-12-20T07:16:57;9.10;88.00
45785;DHT22;31489;51.404;5.474;2023-12-20T07:19:23;9.10;88.10
45785;DHT22;31489;51.404;5.474;2023-12-20T07:21:49;9.10;88.10
45785;DHT22;31489;51.404;5.474;2023-12-20T07:24:15;9.10;88.00
45785;DHT22;31489;51.404;5.474;2023-12-20T07:26:40;9.10;88.00
45785;DHT22;31489;51.404;5.474;2023-12-20T07:29:06;9.10;88.00
45785;DHT22;31489;51.404;5.474;2023-12-20T07:31:32;9.10;88.00
45785;DHT22;31489;51.404;5.474;2023-12-20T07:33:57;9.10;88.00
45785;DHT22;31489;51.404;5.474;2023-12-20T07:36:23;9.10;88.00
45785;DHT22;31489;51.404;5.474;2023-12-20T07:38:49;9.10;88.10
45785;DHT22;31489;51.404;5.474;2023-12-20T07:41:15;9.10;88.20
45785;DHT22;31489;51.404;5.474;2023-12-20T07:43:46;9.10;88.30
45785;DHT22;31489;51.404;5.474;2023-12-20T07:46:12;9.10;88.40
45785;DHT22;31489;51.404;5.474;2023-12-20T07:48:40;9.10;88.40
45785;DHT22;31489;51.404;5.474;2023-12-20T07:51:09;9.10;88.40
45785;DHT22;31489;51.404;5.474;2023-12-20T07:53:35;9.10;88.50
45785;DHT22;31489;51.404;5.474;2023-12-20T07:56:17;9.20;88.50
45785;DHT22;31489;51.404;5.474;2023-12-20T07:58:43;9.20;88.40
45785;DHT22;31489;51.404;5.474;2023-12-20T08:01:09;9.20;88.50
45785;DHT22;31489;51.404;5.474;2023-12-20T08:03:35;9.20;88.50
45785;DHT22;31489;51.404;5.474;2023-12-20T08:06:02;9.30;88.60
45785;DHT22;31489;51.404;5.474;2023-12-20T08:08:30;9.30;88.50
45785;DHT22;31489;51.404;5.474;2023-12-20T08:10:56;9.30;88.50
45785;DHT22;31489;51.404;5.474;2023-12-20T08:13:26;9.30;88.40
45785;DHT22;31489;51.404;5.474;2023-12-20T08:15:52;9.30;88.40
45785;DHT22;31489;51.404;5.474;2023-12-20T08:18:18;9.30;88.40
45785;DHT22;31489;51.404;5.474;2023-12-20T08:20:44;9.30;88.40
45785;DHT22;31489;51.404;5.474;2023-12-20T08:23:10;9.30;88.20
45785;DHT22;31489;51.404;5.474;2023-12-20T08:25:35;9.40;88.30
45785;DHT22;31489;51.404;5.474;2023-12-20T08:28:02;9.40;88.20
45785;DHT22;31489;51.404;5.474;2023-12-20T08:30:29;9.40;88.20
45785;DHT22;31489;51.404;5.474;2023-12-20T08:32:56;9.40;88.20
45785;DHT22;31489;51.404;5.474;2023-12-20T08:35:22;9.40;88.20
45785;DHT22;31489;51.404;5.474;2023-12-20T08:37:47;9.40;88.10
45785;DHT22;31489;51.404;5.474;2023-12-20T08:40:13;9.40;88.00
45785;DHT22;31489;51.404;5.474;2023-12-20T08:42:39;9.40;87.90
45785;DHT22;31489;51.404;5.474;2023-12-20T08:45:05;9.40;87.90
45785;DHT22;31489;51.404;5.474;2023-12-20T08:47:31;9.40;87.90
45785;DHT22;31489;51.404;5.474;2023-12-20T08:49:56;9.40;87.90
45785;DHT22;31489;51.404;5.474;2023-12-20T08:52:24;9.40;88.00
45785;DHT22;31489;51.404;5.474;2023-12-20T08:54:50;9.40;87.90
45785;DHT22;31489;51.404;5.474;2023-12-20T08:57:20;9.40;87.80
45785;DHT22;31489;51.404;5.474;2023-12-20T08:59:52;9.40;87.70
45785;DHT22;31489;51.404;5.474;2023-12-20T09:02:18;9.40;87.80
45785;DHT22;31489;51.404;5.474;2023-12-20T09:04:43;9.40;88.10
45785;DHT22;31489;51.404;5.474;2023-12-20T09:07:24;9.40;88.10
45785;DHT22;31489;51.404;5.474;2023-12-20T09:09:51;9.40;87.80
45785;DHT22;31489;51.404;5.474;2023-12-20T09:12:20;9.50;88.10
45785;DHT22;31489;51.404;5.474;2023-12-20T09:14:47;9.50;88.10
45785;DHT22;31489;51.404;5.474;2023-12-20T09:17:13;9.50;88.10
45785;DHT22;31489;51.404;5.474;2023-12-20T09:19:39;9.50;88.00
45785;DHT22;31489;51.404;5.474;2023-12-20T09:22:08;9.50;88.20
45785;DHT22;31489;51.404;5.474;2023-12-20T09:24:33;9.60;88.20
45785;DHT22;31489;51.404;5.474;2023-12-20T09:26:59;9.60;88.00
45785;DHT22;31489;51.404;5.474;2023-12-20T09:29:25;9.60;87.80
45785;DHT22;31489;51.404;5.474;2023-12-20T09:31:50;9.60;87.90
45785;DHT22;31489;51.404;5.474;2023-12-20T09:34:16;9.60;87.90
45785;DHT22;31489;51.404;5.474;2023-12-20T09:36:45;9.70;87.90
45785;DHT22;31489;51.404;5.474;2023-12-20T09:39:17;9.70;88.00
45785;DHT22;31489;51.404;5.474;2023-12-20T09:42:05;9.70;87.90
45785;DHT22;31489;51.404;5.474;2023-12-20T09:44:32;9.70;87.70
45785;DHT22;31489;51.404;5.474;2023-12-20T09:46:58;9.70;87.90
45785;DHT22;31489;51.404;5.474;2023-12-20T09:49:27;9.70;87.80
45785;DHT22;31489;51.404;5.474;2023-12-20T09:51:54;9.70;87.80
45785;DHT22;31489;51.404;5.474;2023-12-20T09:54:21;9.80;87.70
45785;DHT22;31489;51.404;5.474;2023-12-20T09:56:46;9.80;87.80
45785;DHT22;31489;51.404;5.474;2023-12-20T09:59:13;9.80;87.60
45785;DHT22;31489;51.404;5.474;2023-12-20T10:01:40;9.80;87.60
45785;DHT22;31489;51.404;5.474;2023-12-20T10:04:08;9.80;87.70
45785;DHT22;31489;51.404;5.474;2023-12-20T10:06:41;9.90;87.70
45785;DHT22;31489;51.404;5.474;2023-12-20T10:09:06;9.90;87.80
45785;DHT22;31489;51.404;5.474;2023-12-20T10:11:32;9.90;87.90
45785;DHT22;31489;51.404;5.474;2023-12-20T10:14:01;9.90;87.70
45785;DHT22;31489;51.404;5.474;2023-12-20T10:16:27;9.90;87.60
45785;DHT22;31489;51.404;5.474;2023-12-20T10:18:56;9.90;87.50
45785;DHT22;31489;51.404;5.474;2023-12-20T10:21:22;9.90;87.60
45785;DHT22;31489;51.404;5.474;2023-12-20T10:23:49;9.90;87.60
45785;DHT22;31489;51.404;5.474;2023-12-20T10:26:27;10.00;87.60
45785;DHT22;31489;51.404;5.474;2023-12-20T10:28:53;10.00;87.30
45785;DHT22;31489;51.404;5.474;2023-12-20T10:31:29;10.00;87.50
45785;DHT22;31489;51.404;5.474;2023-12-20T10:33:59;10.00;87.30
45785;DHT22;31489;51.404;5.474;2023-12-20T10:36:26;10.00;87.50
45785;DHT22;31489;51.404;5.474;2023-12-20T10:38:53;10.10;87.60
45785;DHT22;31489;51.404;5.474;2023-12-20T10:41:24;10.00;87.60
45785;DHT22;31489;51.404;5.474;2023-12-20T10:43:51;10.10;87.40
45785;DHT22;31489;51.404;5.474;2023-12-20T10:46:19;10.10;87.50
45785;DHT22;31489;51.404;5.474;2023-12-20T10:48:45;10.10;87.50
45785;DHT22;31489;51.404;5.474;2023-12-20T10:51:14;10.10;87.50
45785;DHT22;31489;51.404;5.474;2023-12-20T10:53:43;10.10;87.50
45785;DHT22;31489;51.404;5.474;2023-12-20T10:56:12;10.10;87.70
45785;DHT22;31489;51.404;5.474;2023-12-20T10:58:42;10.10;87.50
45785;DHT22;31489;51.404;5.474;2023-12-20T11:01:13;10.10;87.50
45785;DHT22;31489;51.404;5.474;2023-12-20T11:03:44;10.10;87.60
45785;DHT22;31489;51.404;5.474;2023-12-20T11:09:01;10.10;87.60
45785;DHT22;31489;51.404;5.474;2023-12-20T11:12:03;10.10;87.70
45785;DHT22;31489;51.404;5.474;2023-12-20T11:17:07;10.10;88.00
45785;DHT22;31489;51.404;5.474;2023-12-20T11:19:36;10.10;87.90
45785;DHT22;31489;51.404;5.474;2023-12-20T11:22:04;10.10;88.10
45785;DHT22;31489;51.404;5.474;2023-12-20T11:24:31;10.10;88.20
45785;DHT22;31489;51.404;5.474;2023-12-20T11:26:59;10.10;88.30
45785;DHT22;31489;51.404;5.474;2023-12-20T11:29:36;10.10;88.30
45785;DHT22;31489;51.404;5.474;2023-12-20T11:32:03;10.10;88.10
45785;DHT22;31489;51.404;5.474;2023-12-20T11:34:56;10.10;88.40
45785;DHT22;31489;51.404;5.474;2023-12-20T11:37:25;10.10;88.50
45785;DHT22;31489;51.404;5.474;2023-12-20T11:39:55;10.10;88.50
45785;DHT22;31489;51.404;5.474;2023-12-20T11:42:21;10.10;88.60
45785;DHT22;31489;51.404;5.474;2023-12-20T11:44:47;10.20;88.60
45785;DHT22;31489;51.404;5.474;2023-12-20T11:47:13;10.20;88.60
45785;DHT22;31489;51.404;5.474;2023-12-20T11:49:41;10.20;88.60
45785;DHT22;31489;51.404;5.474;2023-12-20T11:52:07;10.10;88.60
45785;DHT22;31489;51.404;5.474;2023-12-20T11:54:32;10.10;88.60
45785;DHT22;31489;51.404;5.474;2023-12-20T11:56:58;10.10;88.70
45785;DHT22;31489;51.404;5.474;2023-12-20T11:59:24;10.10;88.90
45785;DHT22;31489;51.404;5.474;2023-12-20T12:01:52;10.10;88.80
45785;DHT22;31489;51.404;5.474;2023-12-20T12:04:18;10.10;88.80
45785;DHT22;31489;51.404;5.474;2023-12-20T12:06:44;10.10;88.90
45785;DHT22;31489;51.404;5.474;2023-12-20T12:09:11;10.10;88.90
45785;DHT22;31489;51.404;5.474;2023-12-20T12:11:36;10.10;89.00
45785;DHT22;31489;51.404;5.474;2023-12-20T12:14:02;10.10;89.10
45785;DHT22;31489;51.404;5.474;2023-12-20T12:16:29;10.10;89.30
45785;DHT22;31489;51.404;5.474;2023-12-20T12:18:56;10.10;89.40
45785;DHT22;31489;51.404;5.474;2023-12-20T12:21:22;10.10;89.40
45785;DHT22;31489;51.404;5.474;2023-12-20T12:23:48;10.10;89.40
45785;DHT22;31489;51.404;5.474;2023-12-20T12:26:14;10.10;89.40
45785;DHT22;31489;51.404;5.474;2023-12-20T12:28:43;10.10;89.60
45785;DHT22;31489;51.404;5.474;2023-12-20T12:31:15;10.10;89.50
45785;DHT22;31489;51.404;5.474;2023-12-20T12:33:43;10.10;89.40
45785;DHT22;31489;51.404;5.474;2023-12-20T12:36:10;10.10;89.50
45785;DHT22;31489;51.404;5.474;2023-12-20T12:38:36;10.10;89.40
45785;DHT22;31489;51.404;5.474;2023-12-20T12:41:02;10.10;89.60
45785;DHT22;31489;51.404;5.474;2023-12-20T12:43:28;10.10;89.70
45785;DHT22;31489;51.404;5.474;2023-12-20T12:45:54;10.20;89.80
45785;DHT22;31489;51.404;5.474;2023-12-20T12:48:23;10.20;89.80
45785;DHT22;31489;51.404;5.474;2023-12-20T12:50:48;10.20;89.90
45785;DHT22;31489;51.404;5.474;2023-12-20T12:53:17;10.30;89.90
45785;DHT22;31489;51.404;5.474;2023-12-20T12:55:42;10.30;89.70
45785;DHT22;31489;51.404;5.474;2023-12-20T12:58:08;10.30;89.60
45785;DHT22;31489;51.404;5.474;2023-12-20T13:00:34;10.40;89.70
45785;DHT22;31489;51.404;5.474;2023-12-20T13:02:59;10.40;89.70
45785;DHT22;31489;51.404;5.474;2023-12-20T13:05:25;10.40;89.60
45785;DHT22;31489;51.404;5.474;2023-12-20T13:07:51;10.50;89.60
45785;DHT22;31489;51.404;5.474;2023-12-20T13:10:17;10.50;90.00
45785;DHT22;31489;51.404;5.474;2023-12-20T13:12:43;10.50;89.50
45785;DHT22;31489;51.404;5.474;2023-12-20T13:15:09;10.60;89.50
45785;DHT22;31489;51.404;5.474;2023-12-20T13:17:34;10.60;89.50
45785;DHT22;31489;51.404;5.474;2023-12-20T13:20:00;10.60;89.40
45785;DHT22;31489;51.404;5.474;2023-12-20T13:22:26;10.70;89.50
45785;DHT22;31489;51.404;5.474;2023-12-20T13:24:52;10.70;89.40
45785;DHT22;31489;51.404;5.474;2023-12-20T13:27:17;10.70;89.20
45785;DHT22;31489;51.404;5.474;2023-12-20T13:29:43;10.70;89.20
45785;DHT22;31489;51.404;5.474;2023-12-20T13:32:09;10.70;89.10
45785;DHT22;31489;51.404;5.474;2023-12-20T13:34:34;10.80;89.20
45785;DHT22;31489;51.404;5.474;2023-12-20T13:37:00;10.80;89.20
45785;DHT22;31489;51.404;5.474;2023-12-20T13:39:26;10.80;89.30
45785;DHT22;31489;51.404;5.474;2023-12-20T13:41:54;10.80;89.30
45785;DHT22;31489;51.404;5.474;2023-12-20T13:44:20;10.80;89.30
45785;DHT22;31489;51.404;5.474;2023-12-20T13:46:46;10.80;89.50
45785;DHT22;31489;51.404;5.474;2023-12-20T13:49:12;10.80;89.20
45785;DHT22;31489;51.404;5.474;2023-12-20T13:51:37;10.80;89.20
45785;DHT22;31489;51.404;5.474;2023-12-20T13:54:04;10.90;89.20
45785;DHT22;31489;51.404;5.474;2023-12-20T13:56:29;10.80;89.10
45785;DHT22;31489;51.404;5.474;2023-12-20T13:58:55;10.90;89.20
45785;DHT22;31489;51.404;5.474;2023-12-20T14:01:21;10.90;89.20
45785;DHT22;31489;51.404;5.474;2023-12-20T14:03:46;10.90;89.40
45785;DHT22;31489;51.404;5.474;2023-12-20T14:06:12;10.90;89.00
45785;DHT22;31489;51.404;5.474;2023-12-20T14:08:41;10.90;89.00
45785;DHT22;31489;51.404;5.474;2023-12-20T14:11:10;10.90;88.90
45785;DHT22;31489;51.404;5.474;2023-12-20T14:13:36;10.90;88.80
45785;DHT22;31489;51.404;5.474;2023-12-20T14:16:02;10.90;88.80
45785;DHT22;31489;51.404;5.474;2023-12-20T14:18:29;10.90;88.80
45785;DHT22;31489;51.404;5.474;2023-12-20T14:20:55;10.90;89.20
45785;DHT22;31489;51.404;5.474;2023-12-20T14:23:21;10.90;88.80
45785;DHT22;31489;51.404;5.474;2023-12-20T14:25:48;10.90;88.80
45785;DHT22;31489;51.404;5.474;2023-12-20T14:28:14;10.90;88.70
45785;DHT22;31489;51.404;5.474;2023-12-20T14:30:40;11.00;88.60
45785;DHT22;31489;51.404;5.474;2023-12-20T14:33:06;10.90;88.50
45785;DHT22;31489;51.404;5.474;2023-12-20T14:35:32;10.90;88.50
45785;DHT22;31489;51.404;5.474;2023-12-20T14:37:58;10.90;88.40
45785;DHT22;31489;51.404;5.474;2023-12-20T14:40:23;10.90;88.40
45785;DHT22;31489;51.404;5.474;2023-12-20T14:42:49;11.00;88.60
45785;DHT22;31489;51.404;5.474;2023-12-20T14:45:16;10.90;88.40
45785;DHT22;31489;51.404;5.474;2023-12-20T14:47:42;10.90;88.40
45785;DHT22;31489;51.404;5.474;2023-12-20T14:50:09;11.00;88.60
45785;DHT22;31489;51.404;5.474;2023-12-20T14:52:34;10.90;88.30
45785;DHT22;31489;51.404;5.474;2023-12-20T14:55:01;10.90;88.30
45785;DHT22;31489;51.404;5.474;2023-12-20T14:57:28;11.00;88.30
45785;DHT22;31489;51.404;5.474;2023-12-20T14:59:55;11.00;88.40
45785;DHT22;31489;51.404;5.474;2023-12-20T15:02:21;11.00;88.40
45785;DHT22;31489;51.404;5.474;2023-12-20T15:04:48;11.00;88.40
45785;DHT22;31489;51.404;5.474;2023-12-20T15:07:15;11.00;88.30
45785;DHT22;31489;51.404;5.474;2023-12-20T15:09:42;11.00;88.40
45785;DHT22;31489;51.404;5.474;2023-12-20T15:12:11;11.00;88.40
45785;DHT22;31489;51.404;5.474;2023-12-20T15:14:37;11.00;88.30
45785;DHT22;31489;51.404;5.474;2023-12-20T15:17:03;11.10;88.30
45785;DHT22;31489;51.404;5.474;2023-12-20T15:19:30;11.00;88.20
45785;DHT22;31489;51.404;5.474;2023-12-20T15:21:56;11.10;88.10
45785;DHT22;31489;51.404;5.474;2023-12-20T15:24:24;11.10;88.20
45785;DHT22;31489;51.404;5.474;2023-12-20T15:26:54;11.10;88.20
45785;DHT22;31489;51.404;5.474;2023-12-20T15:29:21;11.10;88.00
45785;DHT22;31489;51.404;5.474;2023-12-20T15:31:47;11.10;88.00
45785;DHT22;31489;51.404;5.474;2023-12-20T15:34:14;11.10;87.90
45785;DHT22;31489;51.404;5.474;2023-12-20T15:36:40;11.10;87.90
45785;DHT22;31489;51.404;5.474;2023-12-20T15:39:07;11.10;87.90
45785;DHT22;31489;51.404;5.474;2023-12-20T15:41:38;11.10;88.00